Thursday, August 28, 2014
23:18 UTC
  |  Log In   |  Register Free
Airport Search:

Fairfield County Airport
(KFDW)

Fairfield County Airport Diagram
No Airport Diagram Available

FAA data valid effective July 24, 2014 until September 18, 2014 (unless otherwise noted).

 
 
 
 
 
 
 
 
 
 
 
 
 
 

Current Aviation Weather for Fairfield County Airport (KFDW)

The most recent METAR observation for KFDW was updated at: 2235 UTC
METAR Summary (Translated METAR)
KFDW
282235Z AUTO 00000KT 10SM CLR 33/14 A2997 RMK AO1
KCUB
(21.5 nm SE from KFDW)
282153Z AUTO 00000KT 10SM CLR 35/12 A2996 RMK AO2 SLP144 T03500117
TAF Summary (Translated TAF)
KCUB
(21.5 nm SE from KFDW)
282035Z 2821/2918 VRB04KT P6SM SKC FM290000 00000KT P6SM SKC FM291500 VRB03KT P6SM FEW050
KCAE
(22.6 nm SW from KFDW)
282035Z 2821/2918 VRB05KT P6SM SKC FM290400 00000KT P6SM SKC FM291500 VRB04KT P6SM FEW050
  Airport Weather Conditions for KFDW

 Current Weather at FDW
91° F
Fair
East winds at 3.5 mph
FDW NOAA Radar

Pressure: 29.98 in
Humidity: 34%
Wind: East at 3.5 MPH (3 KT)
Dew Point: 59.0°F
Visibility: 10.00 mi


Airport Weather Forecast for KFDW

Translated METAR and TAF for KFDW
Translated METAR for KFDW (2312 UTC 28 August 2014)
found at http://aviationweather.gov/adds/metars/
 
METAR text: KFDW 282315Z AUTO 12003KT 10SM CLR 32/16 A2998 RMK AO1
Conditions at: KFDW (WINNSBORO , SC, US) observed 2315 UTC 28 August 2014
Temperature: 32.0°C (90°F)
Dewpoint: 16.0°C (61°F) [RH = 38%]
Pressure (altimeter): 29.98 inches Hg (1015.3 mb)
Winds: from the ESE (120 degrees) at 3 MPH (3 knots; 1.6 m/s)
Visibility: 10 or more miles (16+ km)
Ceiling: at least 12,000 feet AGL
Clouds: sky clear below 12,000 feet AGL
Weather: automated observation with no human augmentation;
there may or may not be significant weather present at this time
Translated TAF for KFDW

There is no translated TAF available for this airport

Find All Airport Services Find A Hotel Find A Rental Car Find A Golf Course Find A Restaurant $100 Hamburger



FBO's on the Field
FBO Company Facility Photos Services Transportation Aviation Fuel Prices: Prices include tax
Catering Weather Repair Courtesy Rental Type 100LL JetA JetA+ MOGAS 8087
 
S & S Aviation Services

This FBO has not yet been rated
FS:Shell
Last Updated: Jul-17
Login to update fuel prices
SS:
Contact S & S Aviation ServicesMore FBO Information
 
Add another FBO Facility Photos Catering Weather Repair Courtesy Rental Type 100LL JetA JetA+ MOGAS 8087
Services Transportation Aviation Fuel Prices: Prices include tax


GlobalAir.com Airport Resource Center model-print
model-print
model-print
model-print